sensor_id;sensor_type;location;lat;lon;timestamp;temperature;humidity
5346;DHT22;2695;49.444;11.054;2023-06-24T00:02:27;18.40;99.90
5346;DHT22;2695;49.444;11.054;2023-06-24T00:04:56;18.40;99.90
5346;DHT22;2695;49.444;11.054;2023-06-24T00:07:28;18.40;99.90
5346;DHT22;2695;49.444;11.054;2023-06-24T00:10:01;18.30;99.90
5346;DHT22;2695;49.444;11.054;2023-06-24T00:12:33;18.30;99.90
5346;DHT22;2695;49.444;11.054;2023-06-24T00:15:02;18.20;99.90
5346;DHT22;2695;49.444;11.054;2023-06-24T00:17:36;18.20;99.90
5346;DHT22;2695;49.444;11.054;2023-06-24T00:20:07;18.10;99.90
5346;DHT22;2695;49.444;11.054;2023-06-24T00:22:40;18.00;99.90
5346;DHT22;2695;49.444;11.054;2023-06-24T00:25:11;18.00;99.90
5346;DHT22;2695;49.444;11.054;2023-06-24T00:27:40;17.90;99.90
5346;DHT22;2695;49.444;11.054;2023-06-24T00:30:09;17.80;99.90
5346;DHT22;2695;49.444;11.054;2023-06-24T00:32:38;17.80;99.90
5346;DHT22;2695;49.444;11.054;2023-06-24T00:35:09;17.80;99.90
5346;DHT22;2695;49.444;11.054;2023-06-24T00:37:37;17.80;99.90
5346;DHT22;2695;49.444;11.054;2023-06-24T00:40:06;17.60;99.90
5346;DHT22;2695;49.444;11.054;2023-06-24T00:42:42;17.70;99.90
5346;DHT22;2695;49.444;11.054;2023-06-24T00:45:11;17.70;99.90
5346;DHT22;2695;49.444;11.054;2023-06-24T00:47:40;17.60;99.90
5346;DHT22;2695;49.444;11.054;2023-06-24T00:50:10;17.60;99.90
5346;DHT22;2695;49.444;11.054;2023-06-24T00:52:39;17.50;99.90
5346;DHT22;2695;49.444;11.054;2023-06-24T00:55:10;17.40;99.90
5346;DHT22;2695;49.444;11.054;2023-06-24T00:57:39;17.40;99.90
5346;DHT22;2695;49.444;11.054;2023-06-24T01:00:08;17.40;99.90
5346;DHT22;2695;49.444;11.054;2023-06-24T01:02:40;17.40;99.90
5346;DHT22;2695;49.444;11.054;2023-06-24T01:05:11;17.50;99.90
5346;DHT22;2695;49.444;11.054;2023-06-24T01:07:40;17.40;99.90
5346;DHT22;2695;49.444;11.054;2023-06-24T01:10:10;17.30;99.90
5346;DHT22;2695;49.444;11.054;2023-06-24T01:12:41;17.30;99.90
5346;DHT22;2695;49.444;11.054;2023-06-24T01:15:11;17.30;99.90
5346;DHT22;2695;49.444;11.054;2023-06-24T01:17:43;17.20;99.90
5346;DHT22;2695;49.444;11.054;2023-06-24T01:20:21;17.10;99.90
5346;DHT22;2695;49.444;11.054;2023-06-24T01:26:21;17.10;99.90
5346;DHT22;2695;49.444;11.054;2023-06-24T01:29:03;17.00;99.90
5346;DHT22;2695;49.444;11.054;2023-06-24T01:31:40;17.00;99.90
5346;DHT22;2695;49.444;11.054;2023-06-24T01:34:20;17.00;99.90
5346;DHT22;2695;49.444;11.054;2023-06-24T01:36:57;17.00;99.90
5346;DHT22;2695;49.444;11.054;2023-06-24T01:39:31;17.00;99.90
5346;DHT22;2695;49.444;11.054;2023-06-24T01:42:07;17.00;99.90
5346;DHT22;2695;49.444;11.054;2023-06-24T01:44:38;16.90;99.90
5346;DHT22;2695;49.444;11.054;2023-06-24T01:47:09;17.00;99.90
5346;DHT22;2695;49.444;11.054;2023-06-24T01:49:41;16.90;99.90
5346;DHT22;2695;49.444;11.054;2023-06-24T01:52:10;16.80;99.90
5346;DHT22;2695;49.444;11.054;2023-06-24T01:54:40;16.90;99.90
5346;DHT22;2695;49.444;11.054;2023-06-24T01:57:10;16.80;99.90
5346;DHT22;2695;49.444;11.054;2023-06-24T01:59:41;16.70;99.90
5346;DHT22;2695;49.444;11.054;2023-06-24T02:02:12;16.70;99.90
5346;DHT22;2695;49.444;11.054;2023-06-24T02:04:42;16.70;99.90
5346;DHT22;2695;49.444;11.054;2023-06-24T02:07:11;16.70;99.90
5346;DHT22;2695;49.444;11.054;2023-06-24T02:09:41;16.60;99.90
5346;DHT22;2695;49.444;11.054;2023-06-24T02:12:12;16.60;99.90
5346;DHT22;2695;49.444;11.054;2023-06-24T02:14:41;16.60;99.90
5346;DHT22;2695;49.444;11.054;2023-06-24T02:17:12;16.70;99.90
5346;DHT22;2695;49.444;11.054;2023-06-24T02:19:41;16.60;99.90
5346;DHT22;2695;49.444;11.054;2023-06-24T02:22:10;16.60;99.90
5346;DHT22;2695;49.444;11.054;2023-06-24T02:24:41;16.60;99.90
5346;DHT22;2695;49.444;11.054;2023-06-24T02:27:10;16.50;99.90
5346;DHT22;2695;49.444;11.054;2023-06-24T02:29:40;16.50;99.90
5346;DHT22;2695;49.444;11.054;2023-06-24T02:32:08;16.50;99.90
5346;DHT22;2695;49.444;11.054;2023-06-24T02:34:39;16.50;99.90
5346;DHT22;2695;49.444;11.054;2023-06-24T02:37:07;16.50;99.90
5346;DHT22;2695;49.444;11.054;2023-06-24T02:39:35;16.50;99.90
5346;DHT22;2695;49.444;11.054;2023-06-24T02:42:10;16.50;99.90
5346;DHT22;2695;49.444;11.054;2023-06-24T02:44:40;16.50;99.90
5346;DHT22;2695;49.444;11.054;2023-06-24T02:47:10;16.40;99.90
5346;DHT22;2695;49.444;11.054;2023-06-24T02:49:40;16.50;99.90
5346;DHT22;2695;49.444;11.054;2023-06-24T02:52:13;16.50;99.90
5346;DHT22;2695;49.444;11.054;2023-06-24T02:54:42;16.50;99.90
5346;DHT22;2695;49.444;11.054;2023-06-24T02:57:11;16.50;99.90
5346;DHT22;2695;49.444;11.054;2023-06-24T02:59:42;16.60;99.90
5346;DHT22;2695;49.444;11.054;2023-06-24T03:02:11;16.70;99.90
5346;DHT22;2695;49.444;11.054;2023-06-24T03:04:41;16.60;99.90
5346;DHT22;2695;49.444;11.054;2023-06-24T03:07:10;16.60;99.90
5346;DHT22;2695;49.444;11.054;2023-06-24T03:09:39;16.60;99.90
5346;DHT22;2695;49.444;11.054;2023-06-24T03:12:08;16.60;99.90
5346;DHT22;2695;49.444;11.054;2023-06-24T03:14:37;16.50;99.90
5346;DHT22;2695;49.444;11.054;2023-06-24T03:17:05;16.40;99.90
5346;DHT22;2695;49.444;11.054;2023-06-24T03:19:33;16.50;99.90
5346;DHT22;2695;49.444;11.054;2023-06-24T03:22:03;16.50;99.90
5346;DHT22;2695;49.444;11.054;2023-06-24T03:24:31;16.30;99.90
5346;DHT22;2695;49.444;11.054;2023-06-24T03:26:59;16.30;99.90
5346;DHT22;2695;49.444;11.054;2023-06-24T03:29:27;16.30;99.90
5346;DHT22;2695;49.444;11.054;2023-06-24T03:31:56;16.30;99.90
5346;DHT22;2695;49.444;11.054;2023-06-24T03:34:24;16.30;99.90
5346;DHT22;2695;49.444;11.054;2023-06-24T03:36:54;16.40;99.90
5346;DHT22;2695;49.444;11.054;2023-06-24T03:39:25;16.40;99.90
5346;DHT22;2695;49.444;11.054;2023-06-24T03:41:53;16.40;99.90
5346;DHT22;2695;49.444;11.054;2023-06-24T03:44:21;16.40;99.90
5346;DHT22;2695;49.444;11.054;2023-06-24T03:46:49;16.40;99.90
5346;DHT22;2695;49.444;11.054;2023-06-24T03:49:17;16.40;99.90
5346;DHT22;2695;49.444;11.054;2023-06-24T03:51:45;16.40;99.90
5346;DHT22;2695;49.444;11.054;2023-06-24T03:54:13;16.60;99.90
5346;DHT22;2695;49.444;11.054;2023-06-24T03:56:43;17.20;99.90
5346;DHT22;2695;49.444;11.054;2023-06-24T03:59:11;17.80;99.90
5346;DHT22;2695;49.444;11.054;2023-06-24T04:01:40;18.40;99.90
5346;DHT22;2695;49.444;11.054;2023-06-24T04:04:09;19.10;99.90
5346;DHT22;2695;49.444;11.054;2023-06-24T04:06:37;19.80;99.90
5346;DHT22;2695;49.444;11.054;2023-06-24T04:09:05;20.40;99.90
5346;DHT22;2695;49.444;11.054;2023-06-24T04:11:35;20.90;99.90
5346;DHT22;2695;49.444;11.054;2023-06-24T04:14:05;21.50;99.90
5346;DHT22;2695;49.444;11.054;2023-06-24T04:16:33;21.90;99.90
5346;DHT22;2695;49.444;11.054;2023-06-24T04:19:02;22.40;99.90
5346;DHT22;2695;49.444;11.054;2023-06-24T04:21:30;22.80;99.90
5346;DHT22;2695;49.444;11.054;2023-06-24T04:23:58;23.40;99.90
5346;DHT22;2695;49.444;11.054;2023-06-24T04:26:26;23.80;99.90
5346;DHT22;2695;49.444;11.054;2023-06-24T04:28:54;24.10;99.90
5346;DHT22;2695;49.444;11.054;2023-06-24T04:31:23;24.40;99.90
5346;DHT22;2695;49.444;11.054;2023-06-24T04:33:52;24.80;99.90
5346;DHT22;2695;49.444;11.054;2023-06-24T04:36:20;25.20;99.90
5346;DHT22;2695;49.444;11.054;2023-06-24T04:38:48;25.60;99.90
5346;DHT22;2695;49.444;11.054;2023-06-24T04:41:16;26.30;99.90
5346;DHT22;2695;49.444;11.054;2023-06-24T04:43:46;26.60;99.90
5346;DHT22;2695;49.444;11.054;2023-06-24T04:46:14;27.10;98.00
5346;DHT22;2695;49.444;11.054;2023-06-24T04:48:44;27.60;96.20
5346;DHT22;2695;49.444;11.054;2023-06-24T04:51:12;27.90;95.00
5346;DHT22;2695;49.444;11.054;2023-06-24T04:53:40;28.20;93.70
5346;DHT22;2695;49.444;11.054;2023-06-24T04:56:08;28.50;92.30
5346;DHT22;2695;49.444;11.054;2023-06-24T04:58:36;28.80;91.40
5346;DHT22;2695;49.444;11.054;2023-06-24T05:01:05;29.20;90.10
5346;DHT22;2695;49.444;11.054;2023-06-24T05:03:33;29.50;88.20
5346;DHT22;2695;49.444;11.054;2023-06-24T05:06:03;29.80;87.30
5346;DHT22;2695;49.444;11.054;2023-06-24T05:08:30;30.40;83.70
5346;DHT22;2695;49.444;11.054;2023-06-24T05:10:58;30.60;81.70
5346;DHT22;2695;49.444;11.054;2023-06-24T05:13:27;31.00;78.90
5346;DHT22;2695;49.444;11.054;2023-06-24T05:15:55;31.30;75.90
5346;DHT22;2695;49.444;11.054;2023-06-24T05:18:23;31.60;74.30
5346;DHT22;2695;49.444;11.054;2023-06-24T05:20:56;31.90;71.70
5346;DHT22;2695;49.444;11.054;2023-06-24T05:23:39;32.40;68.80
5346;DHT22;2695;49.444;11.054;2023-06-24T05:26:07;32.90;66.20
5346;DHT22;2695;49.444;11.054;2023-06-24T05:28:36;33.20;64.30
5346;DHT22;2695;49.444;11.054;2023-06-24T05:31:04;33.70;62.30
5346;DHT22;2695;49.444;11.054;2023-06-24T05:33:34;34.10;59.30
5346;DHT22;2695;49.444;11.054;2023-06-24T05:36:05;34.40;58.00
5346;DHT22;2695;49.444;11.054;2023-06-24T05:38:33;34.70;56.50
5346;DHT22;2695;49.444;11.054;2023-06-24T05:41:02;35.10;54.50
5346;DHT22;2695;49.444;11.054;2023-06-24T05:43:30;35.40;53.40
5346;DHT22;2695;49.444;11.054;2023-06-24T05:45:58;35.90;52.20
5346;DHT22;2695;49.444;11.054;2023-06-24T05:48:27;36.40;50.60
5346;DHT22;2695;49.444;11.054;2023-06-24T05:50:55;36.80;49.00
5346;DHT22;2695;49.444;11.054;2023-06-24T05:53:23;37.10;47.60
5346;DHT22;2695;49.444;11.054;2023-06-24T05:55:51;37.40;46.30
5346;DHT22;2695;49.444;11.054;2023-06-24T05:58:20;37.40;45.40
5346;DHT22;2695;49.444;11.054;2023-06-24T06:00:48;37.70;44.60
5346;DHT22;2695;49.444;11.054;2023-06-24T06:03:17;37.90;43.60
5346;DHT22;2695;49.444;11.054;2023-06-24T06:05:45;38.00;43.20
5346;DHT22;2695;49.444;11.054;2023-06-24T06:08:13;38.30;42.00
5346;DHT22;2695;49.444;11.054;2023-06-24T06:10:42;38.70;41.00
5346;DHT22;2695;49.444;11.054;2023-06-24T06:13:10;38.70;41.20
5346;DHT22;2695;49.444;11.054;2023-06-24T06:15:40;39.00;40.20
5346;DHT22;2695;49.444;11.054;2023-06-24T06:18:08;38.90;39.70
5346;DHT22;2695;49.444;11.054;2023-06-24T06:20:36;38.90;40.00
5346;DHT22;2695;49.444;11.054;2023-06-24T06:23:04;39.20;39.40
5346;DHT22;2695;49.444;11.054;2023-06-24T06:25:32;39.70;38.50
5346;DHT22;2695;49.444;11.054;2023-06-24T06:28:01;39.70;38.00
5346;DHT22;2695;49.444;11.054;2023-06-24T06:30:29;40.10;37.20
5346;DHT22;2695;49.444;11.054;2023-06-24T06:32:59;40.40;36.70
5346;DHT22;2695;49.444;11.054;2023-06-24T06:35:27;40.40;36.40
5346;DHT22;2695;49.444;11.054;2023-06-24T06:37:57;40.60;36.00
5346;DHT22;2695;49.444;11.054;2023-06-24T06:40:25;40.90;35.20
5346;DHT22;2695;49.444;11.054;2023-06-24T06:42:55;41.10;34.50
5346;DHT22;2695;49.444;11.054;2023-06-24T06:45:23;41.50;33.90
5346;DHT22;2695;49.444;11.054;2023-06-24T06:47:50;41.80;33.30
5346;DHT22;2695;49.444;11.054;2023-06-24T06:50:20;42.00;33.30
5346;DHT22;2695;49.444;11.054;2023-06-24T06:52:48;42.00;31.80
5346;DHT22;2695;49.444;11.054;2023-06-24T06:55:16;42.20;31.70
5346;DHT22;2695;49.444;11.054;2023-06-24T06:57:45;42.40;31.60
5346;DHT22;2695;49.444;11.054;2023-06-24T07:00:14;42.70;31.40
5346;DHT22;2695;49.444;11.054;2023-06-24T07:02:42;42.90;31.20
5346;DHT22;2695;49.444;11.054;2023-06-24T07:05:10;43.30;30.80
5346;DHT22;2695;49.444;11.054;2023-06-24T07:07:40;43.10;31.00
5346;DHT22;2695;49.444;11.054;2023-06-24T07:10:09;42.80;31.00
5346;DHT22;2695;49.444;11.054;2023-06-24T07:12:37;42.70;31.50
5346;DHT22;2695;49.444;11.054;2023-06-24T07:15:06;43.00;31.00
5346;DHT22;2695;49.444;11.054;2023-06-24T07:17:37;43.40;30.70
5346;DHT22;2695;49.444;11.054;2023-06-24T07:20:06;43.70;30.10
5346;DHT22;2695;49.444;11.054;2023-06-24T07:22:34;43.70;29.80
5346;DHT22;2695;49.444;11.054;2023-06-24T07:25:04;43.70;29.90
5346;DHT22;2695;49.444;11.054;2023-06-24T07:27:35;43.70;29.70
5346;DHT22;2695;49.444;11.054;2023-06-24T07:30:04;43.70;29.70
5346;DHT22;2695;49.444;11.054;2023-06-24T07:32:32;44.00;29.70
5346;DHT22;2695;49.444;11.054;2023-06-24T07:35:00;44.00;29.40
5346;DHT22;2695;49.444;11.054;2023-06-24T07:37:28;44.10;29.50
5346;DHT22;2695;49.444;11.054;2023-06-24T07:39:57;44.40;29.10
5346;DHT22;2695;49.444;11.054;2023-06-24T07:42:26;44.20;29.10
5346;DHT22;2695;49.444;11.054;2023-06-24T07:44:57;44.80;29.00
5346;DHT22;2695;49.444;11.054;2023-06-24T07:47:25;45.20;28.30
5346;DHT22;2695;49.444;11.054;2023-06-24T07:49:53;45.10;28.40
5346;DHT22;2695;49.444;11.054;2023-06-24T07:52:21;45.10;28.40
5346;DHT22;2695;49.444;11.054;2023-06-24T07:54:49;45.00;28.30
5346;DHT22;2695;49.444;11.054;2023-06-24T07:57:17;44.90;28.70
5346;DHT22;2695;49.444;11.054;2023-06-24T07:59:47;45.20;28.40
5346;DHT22;2695;49.444;11.054;2023-06-24T08:02:15;45.50;28.20
5346;DHT22;2695;49.444;11.054;2023-06-24T08:04:43;45.60;28.10
5346;DHT22;2695;49.444;11.054;2023-06-24T08:07:11;45.90;27.50
5346;DHT22;2695;49.444;11.054;2023-06-24T08:09:39;45.90;27.30
5346;DHT22;2695;49.444;11.054;2023-06-24T08:12:08;45.50;27.80
5346;DHT22;2695;49.444;11.054;2023-06-24T08:14:36;45.50;27.80
5346;DHT22;2695;49.444;11.054;2023-06-24T08:17:06;45.50;27.70
5346;DHT22;2695;49.444;11.054;2023-06-24T08:19:39;45.80;27.40
5346;DHT22;2695;49.444;11.054;2023-06-24T08:22:07;46.10;27.10
5346;DHT22;2695;49.444;11.054;2023-06-24T08:24:36;46.20;27.10
5346;DHT22;2695;49.444;11.054;2023-06-24T08:27:04;46.30;26.80
5346;DHT22;2695;49.444;11.054;2023-06-24T08:29:35;46.60;26.50
5346;DHT22;2695;49.444;11.054;2023-06-24T08:32:06;46.80;26.10
5346;DHT22;2695;49.444;11.054;2023-06-24T08:34:34;46.80;25.70
5346;DHT22;2695;49.444;11.054;2023-06-24T08:37:02;46.70;25.90
5346;DHT22;2695;49.444;11.054;2023-06-24T08:39:30;46.30;26.20
5346;DHT22;2695;49.444;11.054;2023-06-24T08:41:58;46.10;26.20
5346;DHT22;2695;49.444;11.054;2023-06-24T08:44:26;45.70;26.10
5346;DHT22;2695;49.444;11.054;2023-06-24T08:46:54;45.80;26.30
5346;DHT22;2695;49.444;11.054;2023-06-24T08:49:28;45.30;26.70
5346;DHT22;2695;49.444;11.054;2023-06-24T08:52:02;45.60;26.50
5346;DHT22;2695;49.444;11.054;2023-06-24T08:54:31;46.10;25.70
5346;DHT22;2695;49.444;11.054;2023-06-24T08:57:01;46.20;25.80
5346;DHT22;2695;49.444;11.054;2023-06-24T08:59:32;46.70;25.10
5346;DHT22;2695;49.444;11.054;2023-06-24T09:02:00;46.20;25.50
5346;DHT22;2695;49.444;11.054;2023-06-24T09:04:30;46.30;25.00
5346;DHT22;2695;49.444;11.054;2023-06-24T09:06:58;46.40;24.80
5346;DHT22;2695;49.444;11.054;2023-06-24T09:09:26;46.40;25.10
5346;DHT22;2695;49.444;11.054;2023-06-24T09:11:56;46.40;24.90
5346;DHT22;2695;49.444;11.054;2023-06-24T09:14:25;46.70;24.40
5346;DHT22;2695;49.444;11.054;2023-06-24T09:16:54;46.60;24.30
5346;DHT22;2695;49.444;11.054;2023-06-24T09:19:23;46.20;24.10
5346;DHT22;2695;49.444;11.054;2023-06-24T09:21:56;46.00;24.50
5346;DHT22;2695;49.444;11.054;2023-06-24T09:24:30;46.10;24.60
5346;DHT22;2695;49.444;11.054;2023-06-24T09:26:58;45.80;24.80
5346;DHT22;2695;49.444;11.054;2023-06-24T09:29:27;45.10;25.20
5346;DHT22;2695;49.444;11.054;2023-06-24T09:31:56;45.30;25.20
5346;DHT22;2695;49.444;11.054;2023-06-24T09:34:28;45.80;25.10
5346;DHT22;2695;49.444;11.054;2023-06-24T09:36:58;46.10;25.10
5346;DHT22;2695;49.444;11.054;2023-06-24T09:39:27;46.40;24.50
5346;DHT22;2695;49.444;11.054;2023-06-24T09:41:57;46.30;24.30
5346;DHT22;2695;49.444;11.054;2023-06-24T09:44:25;46.20;23.50
5346;DHT22;2695;49.444;11.054;2023-06-24T09:46:54;46.20;23.40
5346;DHT22;2695;49.444;11.054;2023-06-24T09:49:23;45.60;23.90
5346;DHT22;2695;49.444;11.054;2023-06-24T09:51:55;45.40;24.30
5346;DHT22;2695;49.444;11.054;2023-06-24T09:54:26;45.60;24.30
5346;DHT22;2695;49.444;11.054;2023-06-24T09:57:02;46.10;24.30
5346;DHT22;2695;49.444;11.054;2023-06-24T09:59:31;46.40;23.10
5346;DHT22;2695;49.444;11.054;2023-06-24T10:02:02;46.40;23.10
5346;DHT22;2695;49.444;11.054;2023-06-24T10:04:33;46.60;23.10
5346;DHT22;2695;49.444;11.054;2023-06-24T10:07:01;46.50;23.20
5346;DHT22;2695;49.444;11.054;2023-06-24T10:09:31;46.30;23.40
5346;DHT22;2695;49.444;11.054;2023-06-24T10:11:59;46.50;23.20
5346;DHT22;2695;49.444;11.054;2023-06-24T10:14:28;46.60;22.40
5346;DHT22;2695;49.444;11.054;2023-06-24T10:17:01;46.30;22.50
5346;DHT22;2695;49.444;11.054;2023-06-24T10:19:30;46.00;22.40
5346;DHT22;2695;49.444;11.054;2023-06-24T10:22:08;46.10;22.60
5346;DHT22;2695;49.444;11.054;2023-06-24T10:24:40;46.00;22.50
5346;DHT22;2695;49.444;11.054;2023-06-24T10:27:14;45.60;22.60
5346;DHT22;2695;49.444;11.054;2023-06-24T10:29:45;45.10;23.00
5346;DHT22;2695;49.444;11.054;2023-06-24T10:32:13;44.90;23.00
5346;DHT22;2695;49.444;11.054;2023-06-24T10:34:43;44.90;23.60
5346;DHT22;2695;49.444;11.054;2023-06-24T10:37:13;44.70;23.10
5346;DHT22;2695;49.444;11.054;2023-06-24T10:39:50;44.40;23.00
5346;DHT22;2695;49.444;11.054;2023-06-24T10:42:25;43.60;23.70
5346;DHT22;2695;49.444;11.054;2023-06-24T10:44:54;43.50;24.00
5346;DHT22;2695;49.444;11.054;2023-06-24T10:47:23;43.60;23.20
5346;DHT22;2695;49.444;11.054;2023-06-24T10:49:51;43.80;23.70
5346;DHT22;2695;49.444;11.054;2023-06-24T10:52:21;43.70;24.00
5346;DHT22;2695;49.444;11.054;2023-06-24T10:54:51;43.60;23.90
5346;DHT22;2695;49.444;11.054;2023-06-24T10:57:23;43.20;24.00
5346;DHT22;2695;49.444;11.054;2023-06-24T10:59:53;42.70;24.20
5346;DHT22;2695;49.444;11.054;2023-06-24T11:02:23;42.40;24.60
5346;DHT22;2695;49.444;11.054;2023-06-24T11:04:53;41.80;25.10
5346;DHT22;2695;49.444;11.054;2023-06-24T11:07:23;41.60;25.90
5346;DHT22;2695;49.444;11.054;2023-06-24T11:09:54;41.30;26.00
5346;DHT22;2695;49.444;11.054;2023-06-24T11:12:24;40.80;26.40
5346;DHT22;2695;49.444;11.054;2023-06-24T11:14:55;40.60;26.50
5346;DHT22;2695;49.444;11.054;2023-06-24T11:17:25;40.70;26.70
5346;DHT22;2695;49.444;11.054;2023-06-24T11:19:53;40.80;27.10
5346;DHT22;2695;49.444;11.054;2023-06-24T11:22:25;41.00;26.90
5346;DHT22;2695;49.444;11.054;2023-06-24T11:24:55;41.00;26.60
5346;DHT22;2695;49.444;11.054;2023-06-24T11:27:24;40.60;26.90
5346;DHT22;2695;49.444;11.054;2023-06-24T11:29:54;40.30;27.10
5346;DHT22;2695;49.444;11.054;2023-06-24T11:32:22;39.70;27.30
5346;DHT22;2695;49.444;11.054;2023-06-24T11:34:50;39.10;28.20
5346;DHT22;2695;49.444;11.054;2023-06-24T11:37:18;38.20;29.20
5346;DHT22;2695;49.444;11.054;2023-06-24T11:40:02;37.10;30.30
5346;DHT22;2695;49.444;11.054;2023-06-24T11:42:31;36.10;31.50
5346;DHT22;2695;49.444;11.054;2023-06-24T11:45:01;35.50;33.20
5346;DHT22;2695;49.444;11.054;2023-06-24T11:47:33;35.80;32.60
5346;DHT22;2695;49.444;11.054;2023-06-24T11:50:03;36.20;31.90
5346;DHT22;2695;49.444;11.054;2023-06-24T11:52:39;36.70;31.20
5346;DHT22;2695;49.444;11.054;2023-06-24T11:55:14;36.90;30.20
5346;DHT22;2695;49.444;11.054;2023-06-24T11:57:50;37.00;29.90
5346;DHT22;2695;49.444;11.054;2023-06-24T12:00:20;37.00;30.20
5346;DHT22;2695;49.444;11.054;2023-06-24T12:02:57;37.00;29.90
5346;DHT22;2695;49.444;11.054;2023-06-24T12:05:28;36.90;29.90
5346;DHT22;2695;49.444;11.054;2023-06-24T12:08:01;36.80;30.00
5346;DHT22;2695;49.444;11.054;2023-06-24T12:10:32;36.40;30.30
5346;DHT22;2695;49.444;11.054;2023-06-24T12:13:02;36.30;30.50
5346;DHT22;2695;49.444;11.054;2023-06-24T12:15:33;36.10;30.70
5346;DHT22;2695;49.444;11.054;2023-06-24T12:18:02;35.80;31.10
5346;DHT22;2695;49.444;11.054;2023-06-24T12:20:30;35.40;31.10
5346;DHT22;2695;49.444;11.054;2023-06-24T12:23:03;35.20;31.70
5346;DHT22;2695;49.444;11.054;2023-06-24T12:25:33;35.20;31.40
5346;DHT22;2695;49.444;11.054;2023-06-24T12:28:03;35.10;31.80
5346;DHT22;2695;49.444;11.054;2023-06-24T12:30:34;34.80;32.40
5346;DHT22;2695;49.444;11.054;2023-06-24T12:33:03;34.60;32.60
5346;DHT22;2695;49.444;11.054;2023-06-24T12:35:35;34.40;33.20
5346;DHT22;2695;49.444;11.054;2023-06-24T12:38:05;34.10;32.80
5346;DHT22;2695;49.444;11.054;2023-06-24T12:40:37;33.60;33.50
5346;DHT22;2695;49.444;11.054;2023-06-24T12:43:06;32.80;34.90
5346;DHT22;2695;49.444;11.054;2023-06-24T12:45:34;32.50;35.50
5346;DHT22;2695;49.444;11.054;2023-06-24T12:48:03;32.40;36.60
5346;DHT22;2695;49.444;11.054;2023-06-24T12:50:31;32.30;35.80
5346;DHT22;2695;49.444;11.054;2023-06-24T12:53:00;32.00;36.90
5346;DHT22;2695;49.444;11.054;2023-06-24T12:55:29;31.80;38.00
5346;DHT22;2695;49.444;11.054;2023-06-24T12:57:59;31.60;38.20
5346;DHT22;2695;49.444;11.054;2023-06-24T13:00:28;31.60;37.60
5346;DHT22;2695;49.444;11.054;2023-06-24T13:02:56;31.60;37.60
5346;DHT22;2695;49.444;11.054;2023-06-24T13:05:24;31.70;37.50
5346;DHT22;2695;49.444;11.054;2023-06-24T13:07:53;31.80;37.40
5346;DHT22;2695;49.444;11.054;2023-06-24T13:10:21;31.80;37.10
5346;DHT22;2695;49.444;11.054;2023-06-24T13:12:50;31.70;36.80
5346;DHT22;2695;49.444;11.054;2023-06-24T13:15:20;31.70;38.00
5346;DHT22;2695;49.444;11.054;2023-06-24T13:17:48;31.60;37.80
5346;DHT22;2695;49.444;11.054;2023-06-24T13:20:16;31.50;38.30
5346;DHT22;2695;49.444;11.054;2023-06-24T13:22:44;31.40;38.40
5346;DHT22;2695;49.444;11.054;2023-06-24T13:25:13;31.40;38.50
5346;DHT22;2695;49.444;11.054;2023-06-24T13:27:42;31.50;39.30
5346;DHT22;2695;49.444;11.054;2023-06-24T13:30:12;31.50;38.20
5346;DHT22;2695;49.444;11.054;2023-06-24T13:32:43;31.40;37.80
5346;DHT22;2695;49.444;11.054;2023-06-24T13:35:12;31.30;38.00
5346;DHT22;2695;49.444;11.054;2023-06-24T13:37:40;31.20;38.10
5346;DHT22;2695;49.444;11.054;2023-06-24T13:40:10;31.10;39.00
5346;DHT22;2695;49.444;11.054;2023-06-24T13:42:39;31.00;39.30
5346;DHT22;2695;49.444;11.054;2023-06-24T13:45:07;30.90;39.40
5346;DHT22;2695;49.444;11.054;2023-06-24T13:47:36;30.90;39.20
5346;DHT22;2695;49.444;11.054;2023-06-24T13:50:07;30.90;38.90
5346;DHT22;2695;49.444;11.054;2023-06-24T13:52:37;30.80;39.30
5346;DHT22;2695;49.444;11.054;2023-06-24T13:55:05;30.80;39.40
5346;DHT22;2695;49.444;11.054;2023-06-24T13:57:34;30.60;39.00
5346;DHT22;2695;49.444;11.054;2023-06-24T14:00:03;30.50;39.60
5346;DHT22;2695;49.444;11.054;2023-06-24T14:02:32;30.50;39.40
5346;DHT22;2695;49.444;11.054;2023-06-24T14:05:01;30.60;39.60
5346;DHT22;2695;49.444;11.054;2023-06-24T14:07:34;30.60;39.30
5346;DHT22;2695;49.444;11.054;2023-06-24T14:10:02;30.60;39.50
5346;DHT22;2695;49.444;11.054;2023-06-24T14:12:31;30.70;38.60
5346;DHT22;2695;49.444;11.054;2023-06-24T14:15:00;30.70;38.60
5346;DHT22;2695;49.444;11.054;2023-06-24T14:17:28;30.60;39.10
5346;DHT22;2695;49.444;11.054;2023-06-24T14:19:57;30.50;39.20
5346;DHT22;2695;49.444;11.054;2023-06-24T14:22:25;30.50;39.60
5346;DHT22;2695;49.444;11.054;2023-06-24T14:24:55;30.40;40.00
5346;DHT22;2695;49.444;11.054;2023-06-24T14:27:24;30.30;39.80
5346;DHT22;2695;49.444;11.054;2023-06-24T14:29:52;30.30;38.50
5346;DHT22;2695;49.444;11.054;2023-06-24T14:32:21;30.30;38.60
5346;DHT22;2695;49.444;11.054;2023-06-24T14:34:49;30.30;38.30
5346;DHT22;2695;49.444;11.054;2023-06-24T14:37:17;30.30;38.10
5346;DHT22;2695;49.444;11.054;2023-06-24T14:39:45;30.10;38.60
5346;DHT22;2695;49.444;11.054;2023-06-24T14:42:18;30.00;38.50
5346;DHT22;2695;49.444;11.054;2023-06-24T14:44:47;29.90;38.90
5346;DHT22;2695;49.444;11.054;2023-06-24T14:47:15;29.90;39.50
5346;DHT22;2695;49.444;11.054;2023-06-24T14:49:43;29.90;40.00
5346;DHT22;2695;49.444;11.054;2023-06-24T14:52:11;29.90;40.10
5346;DHT22;2695;49.444;11.054;2023-06-24T14:54:39;30.00;39.10
5346;DHT22;2695;49.444;11.054;2023-06-24T14:57:07;29.90;38.00
5346;DHT22;2695;49.444;11.054;2023-06-24T14:59:37;29.80;37.20
5346;DHT22;2695;49.444;11.054;2023-06-24T15:02:05;29.80;38.40
5346;DHT22;2695;49.444;11.054;2023-06-24T15:04:35;29.60;40.00
5346;DHT22;2695;49.444;11.054;2023-06-24T15:07:03;29.60;38.60
5346;DHT22;2695;49.444;11.054;2023-06-24T15:09:31;29.60;39.00
5346;DHT22;2695;49.444;11.054;2023-06-24T15:12:04;29.60;38.90
5346;DHT22;2695;49.444;11.054;2023-06-24T15:14:33;29.70;39.00
5346;DHT22;2695;49.444;11.054;2023-06-24T15:17:03;29.70;38.80
5346;DHT22;2695;49.444;11.054;2023-06-24T15:19:32;29.70;37.90
5346;DHT22;2695;49.444;11.054;2023-06-24T15:22:03;29.70;37.80
5346;DHT22;2695;49.444;11.054;2023-06-24T15:24:31;29.60;38.10
5346;DHT22;2695;49.444;11.054;2023-06-24T15:27:00;29.50;37.80
5346;DHT22;2695;49.444;11.054;2023-06-24T15:29:28;29.40;39.00
5346;DHT22;2695;49.444;11.054;2023-06-24T15:31:59;29.50;39.20
5346;DHT22;2695;49.444;11.054;2023-06-24T15:34:29;29.40;38.50
5346;DHT22;2695;49.444;11.054;2023-06-24T15:36:57;29.40;39.40
5346;DHT22;2695;49.444;11.054;2023-06-24T15:39:25;29.30;38.90
5346;DHT22;2695;49.444;11.054;2023-06-24T15:41:53;29.20;38.70
5346;DHT22;2695;49.444;11.054;2023-06-24T15:44:21;29.10;39.10
5346;DHT22;2695;49.444;11.054;2023-06-24T15:46:49;29.10;39.40
5346;DHT22;2695;49.444;11.054;2023-06-24T15:49:20;29.20;38.80
5346;DHT22;2695;49.444;11.054;2023-06-24T15:51:51;29.20;37.60
5346;DHT22;2695;49.444;11.054;2023-06-24T15:54:19;29.20;37.70
5346;DHT22;2695;49.444;11.054;2023-06-24T15:56:47;29.20;36.10
5346;DHT22;2695;49.444;11.054;2023-06-24T15:59:15;29.20;36.40
5346;DHT22;2695;49.444;11.054;2023-06-24T16:01:43;29.20;36.20
5346;DHT22;2695;49.444;11.054;2023-06-24T16:04:11;29.10;36.90